Time;durP1;ratioP1;P1;durP2;ratioP2;P2;SDS_P1;SDS_P2;PMS_P1;PMS_P2;Temp;Humidity;BMP_temperature;BMP_pressure;BME280_temperature;BME280_humidity;BME280_pressure;Samples;Min_cycle;Max_cycle;Signal;HPM_P1;HPM_P2
2023/04/03 00:01:18;;;;;;;21.70;12.50;;;;;;;21.79;37.08;99337.99;108448;1251;72449;-67
2023/04/03 00:04:06;;;;;;;24.50;13.50;;;;;;;21.59;37.29;99334.10;108366;1256;72481;-65
2023/04/03 00:06:41;;;;;;;26.50;14.90;;;;;;;21.66;37.27;99335.80;108374;1251;73631;-66
2023/04/03 00:09:11;;;;;;;28.10;14.00;;;;;;;21.55;37.40;99334.39;108339;1251;62365;-67
2023/04/03 00:11:41;;;;;;;26.10;14.90;;;;;;;21.65;37.18;99331.59;108323;1251;60319;-66
2023/04/03 00:14:09;;;;;;;26.90;15.10;;;;;;;21.47;37.41;99330.62;108341;1256;75079;-67
2023/04/03 00:16:54;;;;;;;25.80;14.80;;;;;;;21.39;37.67;99330.88;108345;1251;71254;-67
2023/04/03 00:19:23;;;;;;;27.50;15.10;;;;;;;21.12;38.07;99332.33;108332;1251;71899;-68
2023/04/03 00:21:53;;;;;;;26.70;14.10;;;;;;;21.09;38.18;99331.52;108319;1251;60865;-67
2023/04/03 00:24:22;;;;;;;27.50;15.50;;;;;;;21.23;38.02;99330.74;108248;1251;60605;-67
2023/04/03 00:26:58;;;;;;;29.20;15.90;;;;;;;21.02;38.24;99335.80;108300;1252;75051;-67
2023/04/03 00:29:27;;;;;;;27.50;15.50;;;;;;;20.75;38.74;99331.80;108364;1257;71818;-66
2023/04/03 00:31:55;;;;;;;27.60;14.70;;;;;;;20.83;38.69;99332.17;108299;1255;72908;-65
2023/04/03 00:34:24;;;;;;;28.20;15.20;;;;;;;20.85;38.65;99332.70;108333;1251;60584;-68
2023/04/03 00:36:53;;;;;;;25.20;14.40;;;;;;;20.78;38.77;99329.95;108341;1251;60349;-67
2023/04/03 00:39:22;;;;;;;24.80;14.40;;;;;;;21.03;38.38;99334.97;108408;1257;73928;-68
2023/04/03 00:41:55;;;;;;;27.80;14.60;;;;;;;21.01;38.39;99330.66;108219;1251;70170;-68
2023/04/03 00:44:33;;;;;;;24.50;14.60;;;;;;;21.05;38.35;99332.45;108338;1255;73659;-67
2023/04/03 00:50:05;;;;;;;26.30;14.10;;;;;;;16.18;47.97;99339.64;104968;1290;600089;-65
2023/04/03 00:52:34;;;;;;;23.10;14.50;;;;;;;17.95;44.35;99329.83;107370;1263;62353;-65
2023/04/03 00:55:05;;;;;;;26.80;14.10;;;;;;;18.36;43.53;99332.16;107424;1264;61686;-66
2023/04/03 00:57:33;;;;;;;;;;;;;;;18.73;42.80;99329.69;107402;1264;71747;-65
2023/04/03 01:00:05;;;;;;;23.20;13.50;;;;;;;18.69;42.90;99331.80;107354;1264;68630;-68
2023/04/03 01:02:34;;;;;;;24.70;13.50;;;;;;;19.15;42.15;99327.56;107155;1267;160929;-67
2023/04/03 01:05:04;;;;;;;19.70;12.30;;;;;;;19.32;41.90;99324.83;107436;1264;61176;-66
2023/04/03 01:07:35;;;;;;;21.80;12.80;;;;;;;19.46;41.68;99325.09;107663;1259;60445;-68
2023/04/03 01:10:06;;;;;;;23.30;14.10;;;;;;;19.77;41.05;99324.16;107634;1263;72496;-67
2023/04/03 01:12:36;;;;;;;20.90;12.90;;;;;;;19.63;41.21;99325.38;107683;1260;69158;-66
2023/04/03 01:15:06;;;;;;;;;;;;;;;19.66;41.30;99327.09;107712;1259;73898;-66
2023/04/03 01:17:40;;;;;;;22.30;13.10;;;;;;;19.77;41.14;99325.28;107692;1260;62096;-68
2023/04/03 01:20:18;;;;;;;24.50;13.30;;;;;;;19.56;41.43;99323.34;107594;1260;59801;-68
2023/04/03 01:23:12;;;;;;;24.40;13.50;;;;;;;19.63;41.32;99324.88;107551;1260;73781;-68
2023/04/03 01:25:48;;;;;;;20.90;13.40;;;;;;;19.81;41.02;99320.68;107593;1263;70760;-64
2023/04/03 01:28:26;;;;;;;25.50;13.60;;;;;;;19.86;40.90;99319.84;107602;1259;73692;-65
2023/04/03 01:31:06;;;;;;;22.70;13.80;;;;;;;19.73;41.08;99318.48;107702;1260;60172;-67
2023/04/03 01:33:35;;;;;;;18.80;10.80;;;;;;;19.52;41.53;99322.45;107669;1259;61268;-67
2023/04/03 01:36:04;;;;;;;24.70;13.50;;;;;;;19.62;41.44;99320.36;107673;1261;71924;-66
2023/04/03 01:38:35;;;;;;;19.20;12.70;;;;;;;19.78;41.09;99321.05;107521;1261;70478;-67
2023/04/03 01:41:04;;;;;;;21.90;12.80;;;;;;;19.79;41.06;99322.63;107524;1260;72945;-67
2023/04/03 01:43:32;;;;;;;21.60;12.70;;;;;;;19.70;41.22;99322.69;107616;1260;61998;-68
2023/04/03 01:46:00;;;;;;;21.80;12.70;;;;;;;19.44;41.60;99322.44;107506;1260;60275;-66
2023/04/03 01:48:29;;;;;;;21.00;12.20;;;;;;;19.58;41.43;99324.05;107668;1259;72861;-66
2023/04/03 01:50:59;;;;;;;22.30;13.60;;;;;;;19.75;41.11;99324.73;107691;1260;71460;-67
2023/04/03 01:53:27;;;;;;;23.60;12.50;;;;;;;19.63;41.36;99322.39;107660;1260;72710;-67
2023/04/03 01:56:00;;;;;;;24.70;13.20;;;;;;;19.67;41.32;99327.69;107717;1260;62301;-64
2023/04/03 01:58:29;;;;;;;22.60;13.00;;;;;;;19.78;41.06;99324.67;107792;1259;60808;-68
2023/04/03 02:00:57;;;;;;;21.70;13.30;;;;;;;19.70;41.16;99324.48;107582;1260;72379;-67
2023/04/03 02:03:26;;;;;;;26.50;13.40;;;;;;;19.77;41.16;99319.18;107634;1261;70839;-67
2023/04/03 02:05:54;;;;;;;23.50;13.10;;;;;;;20.11;40.64;99322.04;107546;1266;73119;-66
2023/04/03 02:08:22;;;;;;;22.50;13.60;;;;;;;20.06;40.48;99322.20;107684;1260;62253;-67
2023/04/03 02:10:50;;;;;;;19.40;12.90;;;;;;;20.32;40.22;99321.27;107511;1266;59707;-66
2023/04/03 02:13:19;;;;;;;21.70;13.40;;;;;;;20.34;40.06;99316.65;107595;1263;74287;-67
2023/04/03 02:15:48;;;;;;;23.00;14.00;;;;;;;20.44;40.07;99322.00;107512;1260;71553;-67
2023/04/03 02:18:17;;;;;;;20.00;13.30;;;;;;;20.29;40.17;99324.94;107564;1260;72992;-66
2023/04/03 02:20:47;;;;;;;23.10;13.30;;;;;;;20.14;40.37;99326.08;107550;1260;62085;-66
2023/04/03 02:23:16;;;;;;;26.30;14.40;;;;;;;20.14;40.29;99328.98;107489;1260;61599;-66
2023/04/03 02:25:44;;;;;;;21.70;12.70;;;;;;;20.23;40.24;99327.41;107623;1260;72735;-68
2023/04/03 02:28:12;;;;;;;22.90;13.20;;;;;;;20.31;40.07;99327.55;107626;1260;70774;-68
2023/04/03 02:30:42;;;;;;;23.40;13.50;;;;;;;20.37;40.02;99326.91;107561;1260;72917;-66
2023/04/03 02:33:11;;;;;;;20.10;11.80;;;;;;;20.18;40.18;99329.28;107540;1260;60147;-67
2023/04/03 02:35:40;;;;;;;21.00;13.10;;;;;;;19.99;40.52;99330.48;108304;1253;59928;-67
2023/04/03 02:38:08;;;;;;;28.20;14.10;;;;;;;19.97;40.64;99328.86;108311;1252;73989;-67
2023/04/03 02:40:37;;;;;;;27.50;14.30;;;;;;;19.93;40.65;99329.92;108264;1253;71529;-67
2023/04/03 02:43:05;;;;;;;26.30;15.20;;;;;;;20.04;40.55;99328.21;108207;1253;73931;-65
2023/04/03 02:45:35;;;;;;;25.80;13.70;;;;;;;20.42;40.07;99326.95;108112;1254;62078;-66
2023/04/03 02:48:04;;;;;;;23.40;13.30;;;;;;;20.10;40.46;99327.16;108231;1255;61221;-67
2023/04/03 02:50:32;;;;;;;20.20;12.00;;;;;;;19.98;40.75;99329.48;108191;1254;72974;-65
2023/04/03 02:53:01;;;;;;;27.70;14.10;;;;;;;19.97;40.75;99326.77;108283;1254;70259;-65
2023/04/03 02:55:29;;;;;;;25.60;14.40;;;;;;;19.95;40.83;99328.52;108222;1251;73893;-67
2023/04/03 02:57:57;;;;;;;22.60;14.00;;;;;;;19.81;41.12;99332.23;108175;1251;61278;-65
2023/04/03 03:00:26;;;;;;;23.60;13.80;;;;;;;19.82;40.99;99331.07;108220;1254;60670;-66
2023/04/03 03:02:55;;;;;;;23.90;13.10;;;;;;;19.97;40.86;99329.96;108266;1255;72543;-65
2023/04/03 03:05:23;;;;;;;21.60;13.50;;;;;;;20.07;40.48;99332.60;108158;1252;71562;-65
2023/04/03 03:07:51;;;;;;;24.50;13.90;;;;;;;20.27;40.28;99330.40;108370;1253;73659;-65
2023/04/03 03:10:20;;;;;;;25.00;14.00;;;;;;;20.26;40.23;99327.45;108156;1254;62340;-65
2023/04/03 03:12:48;;;;;;;24.70;14.80;;;;;;;20.25;40.31;99332.56;108291;1254;60533;-65
2023/04/03 03:15:19;;;;;;;27.80;14.40;;;;;;;20.39;40.22;99328.84;108369;1253;74226;-67
2023/04/03 03:17:49;;;;;;;23.40;14.50;;;;;;;20.37;40.03;99327.94;108326;1253;70583;-67
2023/04/03 03:20:24;;;;;;;21.90;13.70;;;;;;;20.28;40.21;99330.00;108309;1253;73245;-67
2023/04/03 03:22:53;;;;;;;23.00;14.20;;;;;;;20.40;39.99;99327.52;108152;1254;59761;-66
2023/04/03 03:25:23;;;;;;;20.30;12.30;;;;;;;20.50;39.98;99325.83;108297;1253;60791;-66
2023/04/03 03:27:52;;;;;;;26.80;14.90;;;;;;;20.36;40.10;99328.05;108129;1254;73249;-67
2023/04/03 03:30:21;;;;;;;25.50;14.30;;;;;;;20.35;40.21;99329.77;108285;1253;70459;-66
2023/04/03 03:32:50;;;;;;;23.70;15.20;;;;;;;20.47;40.03;99328.25;108184;1253;72843;-66
2023/04/03 03:35:18;;;;;;;30.90;15.60;;;;;;;20.52;39.90;99330.71;108313;1253;62090;-67
2023/04/03 03:37:49;;;;;;;;;;;;;;;20.41;40.03;99329.93;108249;1252;60591;-66
2023/04/03 03:40:18;;;;;;;24.90;14.30;;;;;;;20.69;39.58;99332.38;108299;1253;73492;-65
2023/04/03 03:42:46;;;;;;;26.80;15.30;;;;;;;20.67;39.57;99332.36;108262;1253;71255;-66
2023/04/03 03:45:14;;;;;;;29.90;15.30;;;;;;;20.61;39.73;99329.66;108066;1253;72960;-67
2023/04/03 03:47:42;;;;;;;28.60;16.40;;;;;;;20.54;39.75;99329.31;108130;1254;59972;-66
2023/04/03 03:50:10;;;;;;;30.50;16.30;;;;;;;20.67;39.61;99333.10;108181;1253;59738;-65
2023/04/03 03:52:39;;;;;;;26.90;16.10;;;;;;;20.51;39.88;99332.61;108225;1253;73262;-66
2023/04/03 03:55:07;;;;;;;29.70;15.10;;;;;;;20.42;39.97;99340.66;108216;1254;71731;-67
2023/04/03 03:57:36;;;;;;;30.90;16.30;;;;;;;20.63;39.69;99339.02;108237;1254;73815;-67
2023/04/03 04:00:06;;;;;;;29.20;16.50;;;;;;;20.81;39.44;99337.50;108271;1253;60762;-66
2023/04/03 04:02:46;;;;;;;34.40;17.20;;;;;;;21.01;39.18;99338.85;108191;1254;61560;-66
2023/04/03 04:05:17;;;;;;;26.90;15.30;;;;;;;21.01;39.24;99335.85;108075;1254;74023;-65
2023/04/03 04:07:46;;;;;;;29.20;15.50;;;;;;;21.22;38.75;99337.83;108202;1255;71384;-67
2023/04/03 04:10:14;;;;;;;26.70;16.30;;;;;;;20.99;39.14;99339.97;108164;1256;73648;-67
2023/04/03 04:12:43;;;;;;;25.60;14.80;;;;;;;20.95;39.10;99339.10;108116;1252;62174;-66
2023/04/03 04:15:13;;;;;;;26.00;16.20;;;;;;;21.00;39.22;99341.65;108284;1254;61277;-67
2023/04/03 04:17:42;;;;;;;28.80;17.20;;;;;;;20.93;39.16;99339.80;108254;1253;74346;-67
2023/04/03 04:20:12;;;;;;;25.10;14.30;;;;;;;20.80;39.35;99338.69;108392;1253;71576;-67
2023/04/03 04:22:40;;;;;;;28.20;16.90;;;;;;;20.91;39.31;99336.92;108239;1254;73613;-67
2023/04/03 04:25:08;;;;;;;24.50;15.00;;;;;;;20.90;39.33;99340.09;108194;1252;62268;-67
2023/04/03 04:27:38;;;;;;;25.90;16.40;;;;;;;20.89;39.34;99340.20;108236;1252;61034;-67
2023/04/03 04:30:08;;;;;;;20.70;13.70;;;;;;;20.67;39.86;99343.92;108214;1254;74328;-66
2023/04/03 04:32:36;;;;;;;23.90;13.50;;;;;;;20.77;39.68;99343.23;108108;1254;71029;-69
2023/04/03 04:35:05;;;;;;;24.10;14.40;;;;;;;20.64;39.85;99348.86;108235;1255;71544;-66
2023/04/03 04:37:35;;;;;;;24.00;15.00;;;;;;;20.74;39.77;99346.70;108227;1252;61871;-65
2023/04/03 04:40:05;;;;;;;22.00;14.30;;;;;;;20.83;39.58;99349.41;108260;1252;61201;-67
2023/04/03 04:42:33;;;;;;;26.00;15.40;;;;;;;21.07;39.34;99349.05;108203;1254;72459;-67
2023/04/03 04:45:07;;;;;;;38.00;18.90;;;;;;;20.99;39.33;99349.99;108226;1253;70601;-67
2023/04/03 04:47:36;;;;;;;28.60;16.00;;;;;;;20.89;39.50;99347.52;108118;1253;73156;-67
2023/04/03 04:50:06;;;;;;;27.90;14.80;;;;;;;20.54;40.12;99354.27;108110;1254;62401;-64
2023/04/03 04:52:35;;;;;;;32.40;17.30;;;;;;;20.84;39.65;99350.61;108102;1254;61301;-65
2023/04/03 04:55:04;;;;;;;23.10;15.00;;;;;;;20.81;39.69;99350.31;108044;1257;73926;-67
2023/04/03 04:57:35;;;;;;;26.20;15.80;;;;;;;20.96;39.62;99351.29;108039;1254;70408;-67
2023/04/03 05:00:06;;;;;;;24.20;16.00;;;;;;;21.16;39.39;99344.96;108100;1254;74247;-66
2023/04/03 05:02:40;;;;;;;28.80;15.50;;;;;;;21.01;39.52;99347.82;108041;1259;62084;-66
2023/04/03 05:05:09;;;;;;;20.70;13.50;;;;;;;20.93;39.65;99351.52;108144;1254;60214;-67
2023/04/03 05:07:38;;;;;;;23.80;14.00;;;;;;;21.07;39.44;99350.21;108084;1254;75204;-68
2023/04/03 05:10:07;;;;;;;22.60;13.50;;;;;;;21.13;39.36;99354.01;108063;1254;71907;-66
2023/04/03 05:12:36;;;;;;;19.70;11.00;;;;;;;20.88;39.69;99350.81;108047;1258;73590;-65
2023/04/03 05:15:07;;;;;;;23.60;14.60;;;;;;;21.31;39.15;99349.32;108106;1254;61163;-66
2023/04/03 05:17:35;;;;;;;22.60;14.60;;;;;;;21.76;38.58;99348.44;108127;1254;60504;-67
2023/04/03 05:20:06;;;;;;;23.00;13.80;;;;;;;21.75;38.37;99349.77;108067;1253;73353;-68
2023/04/03 05:22:35;;;;;;;;;;;;;;;21.82;38.18;99353.55;108093;1254;69244;-67
2023/04/03 05:25:07;;;;;;;28.60;15.20;;;;;;;21.93;38.13;99353.05;108006;1254;73401;-68
2023/04/03 05:27:36;;;;;;;24.70;14.90;;;;;;;22.20;37.57;99354.36;108049;1254;60897;-68
2023/04/03 05:30:05;;;;;;;22.60;15.50;;;;;;;22.25;37.56;99357.30;108142;1254;60466;-67
2023/04/03 05:32:34;;;;;;;22.90;14.00;;;;;;;22.06;37.81;99360.89;107978;1254;74779;-69
2023/04/03 05:35:33;;;;;;;25.90;15.90;;;;;;;21.83;38.22;99358.81;108009;1253;71077;-67
2023/04/03 05:38:03;;;;;;;22.40;14.50;;;;;;;21.92;38.18;99361.59;108044;1254;72560;-67
2023/04/03 05:40:31;;;;;;;23.40;15.40;;;;;;;22.14;37.89;99363.70;108052;1254;62028;-68
2023/04/03 05:43:00;;;;;;;25.40;15.10;;;;;;;22.15;37.94;99361.70;108072;1254;60441;-67
2023/04/03 05:45:31;;;;;;;24.20;14.60;;;;;;;21.97;38.03;99367.30;108133;1253;74958;-67
2023/04/03 05:48:00;;;;;;;23.20;14.20;;;;;;;21.88;38.31;99370.27;108171;1253;69840;-66
2023/04/03 05:50:30;;;;;;;24.10;15.30;;;;;;;22.04;38.37;99369.14;108308;1252;72322;-68
2023/04/03 05:52:58;;;;;;;27.10;14.60;;;;;;;22.38;37.80;99368.73;108312;1251;60989;-67
2023/04/03 05:55:28;;;;;;;25.90;15.40;;;;;;;22.71;37.41;99364.21;108171;1252;61613;-68
2023/04/03 05:57:56;;;;;;;18.70;12.30;;;;;;;22.74;37.26;99366.40;108109;1253;74490;-67
2023/04/03 06:00:24;;;;;;;23.40;13.90;;;;;;;22.78;37.25;99370.60;108127;1253;70260;-67
2023/04/03 06:03:01;;;;;;;24.20;13.90;;;;;;;22.15;38.35;99373.74;108063;1253;73902;-68
2023/04/03 06:05:30;;;;;;;23.10;14.20;;;;;;;22.17;38.30;99377.30;108247;1253;62405;-68
2023/04/03 06:07:58;;;;;;;24.10;15.40;;;;;;;22.56;37.68;99378.34;108199;1252;61268;-66
2023/04/03 06:10:26;;;;;;;26.70;14.60;;;;;;;22.27;38.33;99378.77;108235;1253;74035;-67
2023/04/03 06:12:55;;;;;;;28.00;16.70;;;;;;;22.41;38.13;99383.65;108213;1253;70384;-67
2023/04/03 06:15:24;;;;;;;27.90;16.60;;;;;;;22.56;37.91;99384.98;108234;1254;71803;-68
2023/04/03 06:17:53;;;;;;;23.10;14.20;;;;;;;22.41;38.09;99383.83;108295;1254;60806;-67
2023/04/03 06:20:22;;;;;;;22.80;14.00;;;;;;;22.20;38.33;99390.27;108318;1253;61324;-68
2023/04/03 06:22:50;;;;;;;27.20;15.90;;;;;;;22.40;38.09;99388.19;108169;1257;75089;-67
2023/04/03 06:25:18;;;;;;;25.70;15.50;;;;;;;22.02;38.49;99396.65;108306;1254;70508;-69
2023/04/03 06:27:47;;;;;;;22.80;14.90;;;;;;;21.74;38.97;99394.41;108303;1253;73972;-66
2023/04/03 06:30:15;;;;;;;26.30;16.80;;;;;;;21.60;39.24;99398.52;108230;1252;61090;-68
2023/04/03 06:32:44;;;;;;;29.00;16.60;;;;;;;21.42;39.53;99397.52;108179;1257;61633;-68
2023/04/03 06:35:14;;;;;;;28.90;16.70;;;;;;;21.46;39.65;99399.80;108414;1253;73358;-68
2023/04/03 06:37:43;;;;;;;25.50;16.30;;;;;;;21.92;38.97;99398.57;108406;1253;69785;-65
2023/04/03 06:40:24;;;;;;;27.00;15.60;;;;;;;21.35;39.72;99404.41;108278;1253;72882;-67
2023/04/03 06:42:53;;;;;;;29.00;16.00;;;;;;;21.49;39.68;99406.68;108239;1253;61589;-67
2023/04/03 06:45:21;;;;;;;25.50;16.00;;;;;;;21.83;39.22;99407.23;108364;1254;60415;-66
2023/04/03 06:47:49;;;;;;;26.40;15.60;;;;;;;22.07;38.93;99409.12;108322;1255;72513;-68
2023/04/03 06:50:18;;;;;;;25.50;15.40;;;;;;;21.99;39.04;99408.92;108288;1253;70572;-69
2023/04/03 06:52:46;;;;;;;24.20;14.40;;;;;;;22.14;38.93;99410.19;108247;1253;72904;-68
2023/04/03 06:55:15;;;;;;;24.40;15.40;;;;;;;22.63;38.18;99410.61;108361;1251;62622;-66
2023/04/03 06:57:43;;;;;;;22.20;14.00;;;;;;;22.82;37.96;99413.20;108308;1251;60599;-68
2023/04/03 07:00:13;;;;;;;26.10;16.30;;;;;;;22.60;38.24;99413.80;108238;1255;73681;-67
2023/04/03 07:02:52;;;;;;;25.90;15.30;;;;;;;22.57;38.24;99415.83;108274;1251;70387;-68
2023/04/03 07:05:22;;;;;;;22.30;14.00;;;;;;;22.65;38.11;99420.46;108316;1250;72945;-68
2023/04/03 07:07:52;;;;;;;23.00;15.00;;;;;;;22.37;38.66;99420.84;108226;1251;62378;-69
2023/04/03 07:10:20;;;;;;;22.10;13.80;;;;;;;22.32;38.87;99417.23;108314;1251;59806;-67
2023/04/03 07:12:50;;;;;;;26.00;13.20;;;;;;;22.38;38.78;99416.81;108302;1251;74802;-67
2023/04/03 07:15:18;;;;;;;22.50;13.60;;;;;;;22.33;38.75;99418.40;108266;1251;71278;-68
2023/04/03 07:17:46;;;;;;;20.70;14.00;;;;;;;22.47;38.39;99415.40;108250;1251;72593;-68
2023/04/03 07:20:15;;;;;;;21.00;14.40;;;;;;;22.32;38.55;99417.53;108315;1251;62151;-67
2023/04/03 07:22:44;;;;;;;23.90;14.60;;;;;;;22.35;38.62;99422.14;108268;1251;61684;-67
2023/04/03 07:25:13;;;;;;;23.30;14.40;;;;;;;22.43;38.73;99422.61;108266;1251;74521;-67
2023/04/03 07:27:41;;;;;;;23.80;15.50;;;;;;;22.75;38.38;99417.45;108256;1251;70161;-68
2023/04/03 07:30:09;;;;;;;22.50;14.30;;;;;;;22.53;38.85;99417.88;108245;1251;72559;-67
2023/04/03 07:32:38;;;;;;;19.90;13.50;;;;;;;22.57;38.87;99419.25;108366;1251;61388;-68
2023/04/03 07:35:07;;;;;;;22.10;13.60;;;;;;;22.93;38.29;99415.52;108283;1251;60430;-68
2023/04/03 07:37:35;;;;;;;24.90;16.20;;;;;;;23.16;37.94;99414.23;108298;1251;75052;-68
2023/04/03 07:40:05;;;;;;;19.80;13.20;;;;;;;22.78;38.54;99425.00;108240;1251;69823;-67
2023/04/03 07:42:33;;;;;;;26.80;14.90;;;;;;;22.85;38.51;99424.55;108257;1251;71701;-66
2023/04/03 07:45:03;;;;;;;16.50;11.20;;;;;;;22.90;38.41;99428.30;108234;1251;61201;-67
2023/04/03 07:47:34;;;;;;;22.30;14.20;;;;;;;23.37;37.74;99427.59;108291;1250;61077;-67
2023/04/03 07:50:02;;;;;;;21.30;13.10;;;;;;;23.55;37.39;99430.61;108319;1251;74800;-70
2023/04/03 07:52:35;;;;;;;23.00;13.40;;;;;;;23.64;37.26;99427.12;108269;1250;71526;-68
2023/04/03 07:55:03;;;;;;;19.50;13.00;;;;;;;23.41;37.41;99428.13;108284;1251;72535;-67
2023/04/03 07:57:31;;;;;;;27.20;14.80;;;;;;;23.38;37.69;99428.74;108300;1251;62010;-67
2023/04/03 08:00:01;;;;;;;23.30;16.50;;;;;;;23.55;37.25;99429.30;108319;1251;61523;-68
2023/04/03 08:02:39;;;;;;;21.70;14.60;;;;;;;23.71;36.96;99433.05;108286;1255;76042;-68
2023/04/03 08:05:08;;;;;;;26.10;13.20;;;;;;;23.56;37.33;99434.55;108252;1251;70750;-66
2023/04/03 08:07:37;;;;;;;22.30;12.60;;;;;;;23.56;37.38;99436.17;108286;1256;73638;-68
2023/04/03 08:10:06;;;;;;;19.60;11.30;;;;;;;23.49;37.63;99436.89;108271;1250;60801;-69
2023/04/03 08:12:36;;;;;;;17.20;10.80;;;;;;;23.84;37.05;99435.17;108254;1251;61421;-69
2023/04/03 08:15:07;;;;;;;24.90;12.30;;;;;;;23.91;36.93;99438.40;108291;1255;75325;-68
2023/04/03 08:17:37;;;;;;;15.50;10.70;;;;;;;23.88;36.99;99439.53;108320;1251;71397;-68
2023/04/03 08:20:08;;;;;;;18.90;12.50;;;;;;;23.71;37.13;99443.48;108332;1255;72555;-66
2023/04/03 08:22:36;;;;;;;17.80;12.10;;;;;;;23.72;37.24;99444.65;108307;1250;61002;-68
2023/04/03 08:25:05;;;;;;;19.60;12.30;;;;;;;23.69;37.26;99447.95;108359;1251;61170;-67
2023/04/03 08:27:34;;;;;;;15.90;10.90;;;;;;;23.92;37.13;99445.42;108301;1251;74975;-68
2023/04/03 08:30:06;;;;;;;19.40;10.90;;;;;;;24.10;36.60;99445.60;108322;1251;71403;-67
2023/04/03 08:32:35;;;;;;;13.00;9.10;;;;;;;24.28;36.43;99450.63;108349;1251;73627;-67
2023/04/03 08:35:05;;;;;;;16.70;10.20;;;;;;;23.87;36.97;99448.48;108332;1251;61919;-68
2023/04/03 08:37:37;;;;;;;16.70;10.50;;;;;;;24.21;36.58;99451.06;108320;1251;60321;-68
2023/04/03 08:40:06;;;;;;;13.40;9.20;;;;;;;23.91;36.87;99455.61;108267;1251;73602;-66
2023/04/03 08:42:56;;;;;;;13.00;9.30;;;;;;;24.03;36.63;99450.98;108322;1255;69240;-69
2023/04/03 08:45:37;;;;;;;17.50;10.20;;;;;;;24.19;36.41;99454.59;108255;1251;73835;-69
2023/04/03 08:48:07;;;;;;;;;;;;;;;24.11;36.64;99459.95;108236;1256;60965;-68
2023/04/03 08:50:40;;;;;;;16.20;10.10;;;;;;;24.40;36.15;99461.08;108284;1251;61269;-67
2023/04/03 08:53:16;;;;;;;14.70;9.90;;;;;;;23.83;37.08;99462.18;108262;1251;73572;-68
2023/04/03 08:55:49;;;;;;;14.40;9.60;;;;;;;23.93;37.10;99462.18;108334;1252;72120;-68
2023/04/03 08:58:22;;;;;;;15.70;10.00;;;;;;;23.85;37.39;99461.79;108292;1251;73246;-68
2023/04/03 09:01:03;;;;;;;13.40;9.20;;;;;;;24.23;37.03;99461.81;108257;1251;62159;-68
2023/04/03 09:03:38;;;;;;;16.90;10.20;;;;;;;24.21;37.23;99458.69;108252;1251;61129;-67
2023/04/03 09:06:16;;;;;;;20.60;12.90;;;;;;;24.42;36.92;99459.90;108288;1250;74704;-66
2023/04/03 09:09:03;;;;;;;14.90;8.80;;;;;;;24.55;36.74;99465.04;108340;1251;71317;-67
2023/04/03 09:11:56;;;;;;;12.60;9.30;;;;;;;24.64;36.29;99464.48;108343;1251;72665;-68
2023/04/03 09:14:32;;;;;;;15.30;9.00;;;;;;;24.77;36.24;99463.60;108303;1251;62882;-67
2023/04/03 09:17:14;;;;;;;13.80;8.80;;;;;;;24.58;36.69;99462.58;108268;1251;61379;-67
2023/04/03 09:19:51;;;;;;;14.70;10.20;;;;;;;24.81;36.28;99459.45;108291;1251;73469;-68
2023/04/03 09:22:26;;;;;;;17.00;9.00;;;;;;;24.88;36.73;99458.86;108295;1251;71390;-67
2023/04/03 09:25:21;;;;;;;15.10;8.60;;;;;;;25.38;36.00;99458.33;108368;1251;72138;-69
2023/04/03 09:27:51;;;;;;;12.60;8.80;;;;;;;25.50;35.78;99459.00;108270;1251;63127;-68
2023/04/03 09:30:21;;;;;;;12.80;8.50;;;;;;;25.65;35.81;99458.79;108243;1251;61655;-68
2023/04/03 09:32:52;;;;;;;14.20;8.90;;;;;;;25.89;35.57;99460.42;108265;1251;73076;-68
2023/04/03 09:35:31;;;;;;;14.80;8.50;;;;;;;26.05;35.16;99457.48;108283;1251;71665;-67
2023/04/03 09:38:17;;;;;;;15.70;8.50;;;;;;;26.20;34.98;99457.86;108267;1251;70399;-68
2023/04/03 09:40:51;;;;;;;13.40;8.60;;;;;;;26.12;34.97;99457.98;108276;1251;63180;-65
2023/04/03 09:43:30;;;;;;;12.80;8.50;;;;;;;26.04;35.56;99456.54;108376;1251;60412;-68
2023/04/03 09:46:31;;;;;;;9.90;6.70;;;;;;;25.97;35.37;99458.83;108268;1255;74514;-68
2023/04/03 09:49:02;;;;;;;8.70;7.20;;;;;;;25.76;34.82;99460.52;108286;1250;69877;-69
2023/04/03 09:51:37;;;;;;;8.80;6.80;;;;;;;25.62;34.35;99461.05;108269;1256;73882;-67
2023/04/03 09:54:25;;;;;;;13.70;8.00;;;;;;;25.26;34.75;99469.11;108268;1253;61705;-67
2023/04/03 09:56:53;;;;;;;12.00;6.80;;;;;;;25.10;35.25;99472.80;108189;1253;59876;-69
2023/04/03 09:59:22;;;;;;;12.70;7.80;;;;;;;25.07;35.19;99472.39;108120;1253;74723;-68
2023/04/03 10:02:06;;;;;;;10.60;6.80;;;;;;;25.02;35.09;99474.54;108109;1258;69484;-68
2023/04/03 10:04:39;;;;;;;12.10;7.50;;;;;;;24.80;35.26;99476.42;108173;1252;73925;-67
2023/04/03 10:07:36;;;;;;;9.70;6.80;;;;;;;24.85;35.08;99477.88;108176;1254;62890;-69
2023/04/03 10:10:23;;;;;;;10.00;6.90;;;;;;;24.59;35.60;99481.02;108157;1253;60424;-68
2023/04/03 10:13:06;;;;;;;9.40;6.80;;;;;;;24.67;35.53;99483.75;108185;1254;74146;-67
2023/04/03 10:15:58;;;;;;;11.60;7.30;;;;;;;24.57;35.40;99486.38;108261;1256;68595;-68
2023/04/03 10:18:33;;;;;;;;;;;;;;;24.31;35.62;99488.74;108240;1252;73820;-69
2023/04/03 10:21:07;;;;;;;13.00;7.60;;;;;;;24.18;36.04;99492.45;108258;1254;63245;-66
2023/04/03 10:23:51;;;;;;;13.00;7.40;;;;;;;24.34;35.73;99489.80;108262;1254;60305;-68
2023/04/03 10:26:50;;;;;;;14.10;8.10;;;;;;;24.47;35.82;99491.27;108301;1254;74204;-68
2023/04/03 10:29:34;;;;;;;13.60;8.10;;;;;;;24.63;35.78;99493.46;108101;1254;70098;-69
2023/04/03 10:32:34;;;;;;;10.90;7.80;;;;;;;24.50;35.97;99493.06;108226;1256;72715;-67
2023/04/03 10:35:12;;;;;;;17.60;9.10;;;;;;;24.61;35.97;99496.41;108123;1253;62831;-67
2023/04/03 10:37:49;;;;;;;11.60;7.10;;;;;;;24.69;36.21;99500.91;108269;1254;60360;-68
2023/04/03 10:40:31;;;;;;;10.40;7.30;;;;;;;24.77;35.81;99502.96;108129;1254;74776;-66
2023/04/03 10:43:06;;;;;;;10.40;8.00;;;;;;;24.91;35.83;99509.36;108249;1254;71186;-68
2023/04/03 10:45:43;;;;;;;10.50;7.60;;;;;;;24.93;36.17;99508.60;108185;1254;72580;-68
2023/04/03 10:48:14;;;;;;;13.30;7.70;;;;;;;25.25;35.94;99508.95;108395;1254;60943;-67
2023/04/03 10:50:44;;;;;;;14.50;8.50;;;;;;;25.53;35.45;99512.92;108403;1254;61121;-68
2023/04/03 10:53:54;;;;;;;8.80;6.50;;;;;;;25.48;34.99;99509.27;108324;1254;73171;-68
2023/04/03 10:56:25;;;;;;;10.70;7.10;;;;;;;25.42;34.59;99512.48;108130;1254;69671;-68
2023/04/03 10:58:57;;;;;;;10.60;7.20;;;;;;;25.23;34.74;99513.44;108251;1254;72852;-67
2023/04/03 11:01:31;;;;;;;10.90;7.50;;;;;;;25.33;34.49;99515.06;108262;1254;61625;-69
2023/04/03 11:04:00;;;;;;;9.10;7.20;;;;;;;25.28;34.82;99515.28;108109;1254;60325;-67
2023/04/03 11:06:41;;;;;;;10.30;7.00;;;;;;;24.90;35.04;99515.86;108180;1253;74790;-68
2023/04/03 11:09:39;;;;;;;10.70;7.30;;;;;;;24.98;34.74;99518.42;108129;1253;71051;-67
2023/04/03 11:12:12;;;;;;;10.10;7.10;;;;;;;25.13;34.44;99520.77;108242;1255;73627;-67
2023/04/03 11:14:41;;;;;;;14.10;8.00;;;;;;;24.94;34.59;99523.75;108208;1254;62898;-67
2023/04/03 11:17:16;;;;;;;7.90;6.10;;;;;;;24.79;34.70;99520.70;108125;1254;60778;-67
2023/04/03 11:19:52;;;;;;;9.20;7.20;;;;;;;24.81;34.88;99523.27;108271;1254;73885;-67
2023/04/03 11:22:23;;;;;;;11.70;7.50;;;;;;;24.80;35.13;99525.05;108306;1253;71550;-67
2023/04/03 11:24:58;;;;;;;9.80;6.40;;;;;;;24.67;35.37;99518.71;108231;1254;73492;-68
2023/04/03 11:27:30;;;;;;;9.10;6.10;;;;;;;24.67;35.18;99519.45;108278;1256;62217;-67
2023/04/03 11:29:58;;;;;;;10.50;6.40;;;;;;;24.86;35.08;99524.19;108002;1251;60377;-67
2023/04/03 11:32:33;;;;;;;9.00;7.00;;;;;;;24.67;35.18;99521.89;108192;1253;74867;-67
2023/04/03 11:35:01;;;;;;;12.20;7.10;;;;;;;24.59;35.10;99520.83;108197;1255;70267;-68
2023/04/03 11:37:37;;;;;;;8.60;6.50;;;;;;;24.77;34.88;99522.91;108240;1253;72928;-68